Time;durP1;ratioP1;P1;durP2;ratioP2;P2;SDS_P1;SDS_P2;PMS_P1;PMS_P2;Temp;Humidity;BMP_temperature;BMP_pressure;BME280_temperature;BME280_humidity;BME280_pressure;Samples;Min_cycle;Max_cycle;Signal;HPM_P1;HPM_P2
2021/07/20 00:02:26;;;;;;;11.13;8.80;;;15.10;99.90;;;;;;5095369;28;20165;-69
2021/07/20 00:04:51;;;;;;;14.10;8.90;;;15.10;99.90;;;;;;5094896;28;20208;-69
2021/07/20 00:07:17;;;;;;;11.80;8.93;;;15.10;99.90;;;;;;5094717;28;20389;-70
2021/07/20 00:09:42;;;;;;;11.50;8.33;;;15.00;99.90;;;;;;5094826;28;20150;-69
2021/07/20 00:12:08;;;;;;;11.13;8.17;;;15.00;99.90;;;;;;5094947;28;20166;-69
2021/07/20 00:14:34;;;;;;;11.27;8.53;;;15.00;99.90;;;;;;5094753;28;20162;-70
2021/07/20 00:17:00;;;;;;;12.83;9.17;;;15.00;99.90;;;;;;5094219;28;20778;-70
2021/07/20 00:19:25;;;;;;;10.80;8.90;;;15.00;99.90;;;;;;5094701;28;20165;-69
2021/07/20 00:21:52;;;;;;;11.30;8.47;;;15.00;99.90;;;;;;5094422;28;20170;-69
2021/07/20 00:24:17;;;;;;;13.13;9.50;;;14.90;99.90;;;;;;5094413;28;20211;-69
2021/07/20 00:26:44;;;;;;;11.30;8.30;;;14.90;99.90;;;;;;5086147;28;20508;-69
2021/07/20 00:29:09;;;;;;;12.77;8.93;;;14.90;99.90;;;;;;5074992;28;20512;-69
2021/07/20 00:31:35;;;;;;;12.07;8.87;;;14.90;99.90;;;;;;5074712;28;20389;-69
2021/07/20 00:34:00;;;;;;;12.70;10.33;;;14.80;99.90;;;;;;5093606;28;20612;-69
2021/07/20 00:36:26;;;;;;;12.03;8.73;;;14.80;99.90;;;;;;5094837;28;20165;-69
2021/07/20 00:38:51;;;;;;;13.00;8.67;;;14.80;99.90;;;;;;5094518;28;20184;-69
2021/07/20 00:41:17;;;;;;;12.77;9.13;;;14.80;99.90;;;;;;5093979;28;20178;-69
2021/07/20 00:43:42;;;;;;;14.03;9.47;;;14.70;99.90;;;;;;5094748;28;20193;-69
2021/07/20 00:46:09;;;;;;;11.87;8.47;;;14.70;99.90;;;;;;5094446;28;20213;-69
2021/07/20 00:48:34;;;;;;;12.63;9.33;;;14.70;99.90;;;;;;5093499;28;20223;-69
2021/07/20 00:51:00;;;;;;;12.73;9.87;;;14.70;99.90;;;;;;5074635;28;20408;-69
2021/07/20 00:53:26;;;;;;;12.37;8.77;;;14.60;99.90;;;;;;5073749;28;20157;-69
2021/07/20 00:55:51;;;;;;;11.33;8.77;;;14.60;99.90;;;;;;5073832;28;20157;-69
2021/07/20 00:58:18;;;;;;;13.07;9.33;;;14.60;99.90;;;;;;5080252;28;20868;-69
2021/07/20 01:00:47;;;;;;;10.43;8.77;;;14.60;99.90;;;;;;5093917;28;20155;-69
2021/07/20 01:03:13;;;;;;;12.70;8.67;;;14.50;99.90;;;;;;5076614;28;20503;-69
2021/07/20 01:05:38;;;;;;;11.33;8.90;;;14.50;99.90;;;;;;5073827;28;20859;-69
2021/07/20 01:08:05;;;;;;;10.90;9.00;;;14.50;99.90;;;;;;5092704;28;20181;-69
2021/07/20 01:10:32;;;;;;;10.30;7.63;;;14.50;99.90;;;;;;5093604;28;20526;-69
2021/07/20 01:13:00;;;;;;;11.00;8.33;;;14.40;99.90;;;;;;5094343;28;20489;-69
2021/07/20 01:15:26;;;;;;;12.90;10.17;;;14.40;99.90;;;;;;5093808;28;20754;-69
2021/07/20 01:17:55;;;;;;;11.90;8.73;;;14.40;99.90;;;;;;5093435;28;20420;-69
2021/07/20 01:20:23;;;;;;;14.87;8.90;;;14.40;99.90;;;;;;5093472;28;20787;-70
2021/07/20 01:22:59;;;;;;;10.53;8.50;;;14.40;99.90;;;;;;5092743;28;20497;-69
2021/07/20 01:25:25;;;;;;;13.07;9.60;;;14.40;99.90;;;;;;5092884;28;20452;-69
2021/07/20 01:27:57;;;;;;;13.90;9.23;;;14.40;99.90;;;;;;5094435;28;20389;-69
2021/07/20 01:30:23;;;;;;;12.60;9.10;;;14.40;99.90;;;;;;5093922;28;20820;-69
2021/07/20 01:32:52;;;;;;;10.53;8.43;;;14.40;99.90;;;;;;5080022;28;20427;-69
2021/07/20 01:35:18;;;;;;;12.17;8.30;;;14.40;99.90;;;;;;5072872;28;20406;-69
2021/07/20 01:37:44;;;;;;;13.20;9.03;;;14.30;99.90;;;;;;5073084;28;20437;-69
2021/07/20 01:40:11;;;;;;;12.43;9.40;;;14.30;99.90;;;;;;5076787;28;20449;-69
2021/07/20 01:42:39;;;;;;;11.13;8.30;;;14.30;99.90;;;;;;5075117;28;20940;-69
2021/07/20 01:45:05;;;;;;;11.77;9.20;;;14.30;99.90;;;;;;5072671;28;20454;-69
2021/07/20 01:47:31;;;;;;;10.43;8.53;;;14.30;99.90;;;;;;5072723;28;20879;-69
2021/07/20 01:49:58;;;;;;;11.73;9.50;;;14.30;99.90;;;;;;5072681;28;20394;-69
2021/07/20 01:52:24;;;;;;;12.20;8.90;;;14.20;99.90;;;;;;5072734;28;20853;-69
2021/07/20 01:54:50;;;;;;;12.10;10.00;;;14.20;99.90;;;;;;5072720;28;20402;-69
2021/07/20 01:57:17;;;;;;;11.63;9.47;;;14.20;99.90;;;;;;5074501;28;20422;-70
2021/07/20 01:59:43;;;;;;;11.03;8.37;;;14.20;99.90;;;;;;5072460;28;20809;-69
2021/07/20 02:02:24;;;;;;;13.30;9.30;;;14.20;99.90;;;;;;5072365;28;20410;-69
2021/07/20 02:10:23;;;;;;;12.70;9.93;;;14.20;99.90;;;;;;5072064;28;20409;-69
2021/07/20 02:12:48;;;;;;;13.63;9.27;;;14.10;99.90;;;;;;5072667;28;20871;-70
2021/07/20 02:15:14;;;;;;;12.73;9.80;;;14.10;99.90;;;;;;5073554;28;20425;-69
2021/07/20 02:17:41;;;;;;;15.83;10.27;;;14.10;99.90;;;;;;5072498;28;20167;-69
2021/07/20 02:22:47;;;;;;;11.50;9.30;;;14.10;99.90;;;;;;5089936;27;20518;-68
2021/07/20 02:25:14;;;;;;;14.17;9.80;;;14.10;99.90;;;;;;5090390;28;20398;-69
2021/07/20 02:27:42;;;;;;;13.93;8.83;;;14.10;99.90;;;;;;5089784;28;20393;-69
2021/07/20 02:30:12;;;;;;;12.53;9.17;;;14.00;99.90;;;;;;5089794;28;20432;-69
2021/07/20 02:32:39;;;;;;;14.70;10.03;;;14.00;99.90;;;;;;5085634;28;20408;-69
2021/07/20 02:35:06;;;;;;;15.90;11.07;;;14.00;99.90;;;;;;5089833;28;20740;-68
2021/07/20 02:37:34;;;;;;;13.47;10.70;;;14.00;99.90;;;;;;5090282;28;20378;-69
2021/07/20 02:40:02;;;;;;;11.70;9.13;;;14.00;99.90;;;;;;5090484;28;20392;-69
2021/07/20 02:42:28;;;;;;;12.93;9.27;;;14.00;99.90;;;;;;5090101;28;20438;-70
2021/07/20 02:44:55;;;;;;;11.70;8.93;;;14.00;99.90;;;;;;5089540;28;20519;-70
2021/07/20 02:47:21;;;;;;;12.00;8.87;;;14.00;99.90;;;;;;5089480;28;20889;-70
2021/07/20 02:49:49;;;;;;;11.60;9.33;;;14.00;99.90;;;;;;5071506;28;20414;-70
2021/07/20 02:52:15;;;;;;;11.37;8.73;;;13.90;99.90;;;;;;5069322;28;20836;-70
2021/07/20 02:54:41;;;;;;;12.93;8.60;;;13.90;99.90;;;;;;5069881;28;20402;-69
2021/07/20 02:57:07;;;;;;;16.23;9.47;;;13.90;99.90;;;;;;5070400;28;20398;-70
2021/07/20 02:59:34;;;;;;;12.33;9.60;;;13.90;99.90;;;;;;5089175;28;20524;-70
2021/07/20 03:02:02;;;;;;;13.40;10.03;;;13.90;99.90;;;;;;5088454;28;20448;-70
2021/07/20 03:04:28;;;;;;;11.23;8.60;;;13.90;99.90;;;;;;5089228;28;20453;-70
2021/07/20 03:06:57;;;;;;;15.43;10.20;;;13.80;99.90;;;;;;5070247;28;20417;-70
2021/07/20 03:09:24;;;;;;;15.20;9.40;;;13.90;99.90;;;;;;5068863;28;20896;-70
2021/07/20 03:11:56;;;;;;;11.63;9.10;;;13.80;99.90;;;;;;5068708;28;20933;-70
2021/07/20 03:14:23;;;;;;;16.33;12.03;;;13.80;99.90;;;;;;5068663;28;20886;-70
2021/07/20 03:16:50;;;;;;;15.23;10.70;;;13.80;99.90;;;;;;5068604;28;20394;-70
2021/07/20 03:19:19;;;;;;;13.43;9.00;;;13.80;99.90;;;;;;5068405;28;20410;-70
2021/07/20 03:21:49;;;;;;;11.60;8.67;;;13.80;99.90;;;;;;5069003;28;20462;-70
2021/07/20 03:24:15;;;;;;;13.40;9.40;;;13.80;99.90;;;;;;5069049;28;20414;-70
2021/07/20 03:26:41;;;;;;;13.33;9.30;;;13.70;99.90;;;;;;5068467;28;20398;-70
2021/07/20 03:29:08;;;;;;;13.30;9.33;;;13.70;99.90;;;;;;5068336;28;20409;-70
2021/07/20 03:31:35;;;;;;;14.43;10.37;;;13.70;99.90;;;;;;5077115;28;20429;-70
2021/07/20 03:34:02;;;;;;;12.67;9.67;;;13.70;99.90;;;;;;5075609;28;20883;-70
2021/07/20 03:36:28;;;;;;;12.47;9.63;;;13.70;99.90;;;;;;5075281;28;20409;-70
2021/07/20 03:38:55;;;;;;;12.90;10.07;;;13.70;99.90;;;;;;5072076;28;20418;-70
2021/07/20 03:41:22;;;;;;;13.53;9.33;;;13.70;99.90;;;;;;5055557;28;20458;-70
2021/07/20 03:43:48;;;;;;;11.50;9.07;;;13.70;99.90;;;;;;5054861;28;20429;-70
2021/07/20 03:46:15;;;;;;;13.93;9.43;;;13.70;99.90;;;;;;5054916;28;20437;-70
2021/07/20 03:48:41;;;;;;;13.00;9.63;;;13.70;99.90;;;;;;5054840;28;20430;-70
2021/07/20 03:51:07;;;;;;;15.30;10.47;;;13.70;99.90;;;;;;5054951;28;20805;-70
2021/07/20 03:53:34;;;;;;;17.03;10.60;;;13.60;99.90;;;;;;5054681;28;20160;-70
2021/07/20 03:56:02;;;;;;;17.43;12.43;;;13.60;99.90;;;;;;5055346;28;20192;-70
2021/07/20 03:58:29;;;;;;;15.67;9.93;;;13.60;99.90;;;;;;5054540;28;20422;-70
2021/07/20 04:00:59;;;;;;;15.40;11.77;;;13.60;99.90;;;;;;5055386;28;20478;-70
2021/07/20 04:03:26;;;;;;;15.80;10.83;;;13.60;99.90;;;;;;5074816;28;20393;-70
2021/07/20 04:05:55;;;;;;;11.10;8.87;;;13.60;99.90;;;;;;5074536;28;20447;-70
2021/07/20 04:08:21;;;;;;;16.33;10.20;;;13.60;99.90;;;;;;5074984;28;20402;-70
2021/07/20 04:10:48;;;;;;;16.63;10.37;;;13.60;99.90;;;;;;5074556;28;20558;-70
2021/07/20 04:13:15;;;;;;;18.70;10.40;;;13.60;99.90;;;;;;5069279;28;20418;-70
2021/07/20 04:15:45;;;;;;;11.60;9.80;;;13.50;99.90;;;;;;5054408;28;20394;-70
2021/07/20 04:18:12;;;;;;;13.50;10.43;;;13.50;99.90;;;;;;5054309;28;20405;-70
2021/07/20 04:20:38;;;;;;;15.07;9.73;;;13.50;99.90;;;;;;5054220;28;20406;-70
2021/07/20 04:23:06;;;;;;;14.27;9.60;;;13.50;99.90;;;;;;5054809;28;20395;-70
2021/07/20 04:25:34;;;;;;;12.10;9.30;;;13.50;99.90;;;;;;5054176;28;20155;-70
2021/07/20 04:28:00;;;;;;;14.10;10.40;;;13.50;99.90;;;;;;5054014;28;20395;-70
2021/07/20 04:30:25;;;;;;;15.50;11.00;;;13.50;99.90;;;;;;5060416;28;20424;-71
2021/07/20 04:32:54;;;;;;;15.67;11.07;;;13.50;99.90;;;;;;5073558;28;20719;-70
2021/07/20 04:35:21;;;;;;;13.93;10.00;;;13.60;99.90;;;;;;5074061;28;20243;-70
2021/07/20 04:37:48;;;;;;;15.37;11.10;;;13.60;99.90;;;;;;5074327;28;20386;-70
2021/07/20 04:40:14;;;;;;;18.50;10.83;;;13.60;99.90;;;;;;5073888;28;20394;-70
2021/07/20 04:42:40;;;;;;;18.77;11.77;;;13.60;99.90;;;;;;5073826;28;20540;-70
2021/07/20 04:45:08;;;;;;;12.90;10.70;;;13.60;99.90;;;;;;5073192;28;20444;-70
2021/07/20 04:47:37;;;;;;;18.70;11.00;;;13.70;99.90;;;;;;5065971;28;20415;-70
2021/07/20 04:50:09;;;;;;;13.60;11.00;;;13.70;99.90;;;;;;5053751;28;20395;-70
2021/07/20 04:52:38;;;;;;;19.70;11.50;;;13.80;99.90;;;;;;5054092;28;20490;-70
2021/07/20 04:55:05;;;;;;;14.43;11.87;;;13.80;99.90;;;;;;5053730;28;20784;-70
2021/07/20 04:57:30;;;;;;;16.53;10.93;;;13.80;99.90;;;;;;5066438;28;20410;-70
2021/07/20 04:59:56;;;;;;;16.30;11.17;;;13.90;99.90;;;;;;5073397;28;20508;-70
2021/07/20 05:02:23;;;;;;;18.40;10.83;;;13.90;99.90;;;;;;5065927;28;20199;-70
2021/07/20 05:04:49;;;;;;;19.20;11.63;;;13.90;99.90;;;;;;5063230;28;20426;-70
2021/07/20 05:07:17;;;;;;;14.30;11.37;;;14.00;99.90;;;;;;5069180;28;20517;-70
2021/07/20 05:09:43;;;;;;;14.20;11.63;;;14.00;99.90;;;;;;5070400;28;20426;-70
2021/07/20 05:12:11;;;;;;;14.40;11.00;;;14.00;99.90;;;;;;5070862;28;20606;-70
2021/07/20 05:14:37;;;;;;;14.13;11.30;;;14.10;99.90;;;;;;5070008;28;20934;-70
2021/07/20 05:17:05;;;;;;;17.33;12.10;;;14.10;99.90;;;;;;5069421;28;20443;-70
2021/07/20 05:19:30;;;;;;;16.63;11.50;;;14.20;99.90;;;;;;5072776;28;20479;-70
2021/07/20 05:21:58;;;;;;;20.40;13.07;;;14.20;99.90;;;;;;5061072;28;20870;-70
2021/07/20 05:24:24;;;;;;;17.53;11.53;;;14.20;99.90;;;;;;5069396;28;20181;-70
2021/07/20 05:26:51;;;;;;;17.90;12.63;;;14.30;99.90;;;;;;5070670;28;20427;-70
2021/07/20 05:29:20;;;;;;;17.17;13.10;;;14.30;99.90;;;;;;5064503;28;20732;-70
2021/07/20 05:31:47;;;;;;;17.93;13.30;;;14.40;99.90;;;;;;5069142;28;20450;-70
2021/07/20 05:34:14;;;;;;;18.80;13.67;;;14.40;99.90;;;;;;5063059;28;20465;-70
2021/07/20 05:36:40;;;;;;;21.10;13.07;;;14.50;99.90;;;;;;5067614;28;20438;-70
2021/07/20 05:39:06;;;;;;;40.83;17.13;;;14.60;99.90;;;;;;5063440;28;20428;-70
2021/07/20 05:41:32;;;;;;;21.37;14.20;;;14.60;99.90;;;;;;5072447;28;20479;-70
2021/07/20 05:43:58;;;;;;;16.90;13.60;;;14.60;99.90;;;;;;5072656;28;20516;-70
2021/07/20 05:46:25;;;;;;;20.33;14.23;;;14.70;99.90;;;;;;5072575;28;20157;-70
2021/07/20 05:48:52;;;;;;;20.33;13.87;;;14.70;99.90;;;;;;5071142;28;20436;-70
2021/07/20 05:51:20;;;;;;;16.80;12.07;;;14.80;99.90;;;;;;5071049;28;20441;-70
2021/07/20 05:53:46;;;;;;;21.70;14.07;;;14.80;99.90;;;;;;5070686;28;20443;-71
2021/07/20 05:56:12;;;;;;;19.23;13.30;;;14.90;99.90;;;;;;5057760;28;20499;-70
2021/07/20 05:58:37;;;;;;;19.87;14.57;;;15.00;99.90;;;;;;5055874;28;20434;-71
2021/07/20 06:01:05;;;;;;;23.00;13.73;;;15.10;99.90;;;;;;5068961;28;20470;-70
2021/07/20 06:03:32;;;;;;;21.03;14.60;;;15.20;99.90;;;;;;5066798;28;20649;-71
2021/07/20 06:05:58;;;;;;;22.60;14.70;;;15.30;99.90;;;;;;5069859;28;20460;-71
2021/07/20 06:08:26;;;;;;;18.10;12.83;;;15.50;99.90;;;;;;5067605;28;20452;-71
2021/07/20 06:10:55;;;;;;;23.00;13.50;;;15.60;99.90;;;;;;5070716;28;20451;-71
2021/07/20 06:13:24;;;;;;;21.03;13.67;;;15.80;99.90;;;;;;5063729;28;21007;-70
2021/07/20 06:15:50;;;;;;;21.27;12.30;;;15.90;99.90;;;;;;5064130;28;20487;-70
2021/07/20 06:18:16;;;;;;;18.63;13.63;;;16.00;99.90;;;;;;5065883;28;20437;-71
2021/07/20 06:20:59;;;;;;;21.10;14.43;;;16.10;99.90;;;;;;5061244;28;20443;-71
2021/07/20 06:23:29;;;;;;;21.03;13.33;;;16.20;99.90;;;;;;5057622;28;20229;-71
2021/07/20 06:25:56;;;;;;;19.17;13.33;;;16.30;99.90;;;;;;5068887;28;20469;-71
2021/07/20 06:28:23;;;;;;;21.63;13.33;;;16.50;99.90;;;;;;5068845;28;20418;-70
2021/07/20 06:30:50;;;;;;;19.90;12.73;;;16.50;99.90;;;;;;5062568;28;20799;-70
2021/07/20 06:33:18;;;;;;;19.50;13.40;;;16.70;99.90;;;;;;5066491;28;20445;-71
2021/07/20 06:35:46;;;;;;;15.03;12.23;;;16.70;99.90;;;;;;5062306;28;20958;-70
2021/07/20 06:38:15;;;;;;;16.00;11.30;;;16.80;99.90;;;;;;5066319;28;20437;-71
2021/07/20 06:40:44;;;;;;;20.23;13.40;;;16.90;99.90;;;;;;5069814;28;20433;-70
2021/07/20 06:43:11;;;;;;;19.90;12.97;;;16.90;99.90;;;;;;5067391;28;20532;-70
2021/07/20 06:45:38;;;;;;;18.60;12.50;;;16.90;99.90;;;;;;5060906;28;20433;-70
2021/07/20 06:48:04;;;;;;;18.03;13.03;;;16.90;99.90;;;;;;5071765;28;20463;-71
2021/07/20 06:50:30;;;;;;;20.47;12.77;;;16.90;99.90;;;;;;5059996;28;20757;-70
2021/07/20 06:52:55;;;;;;;21.13;13.57;;;16.90;99.90;;;;;;5067734;28;20805;-71
2021/07/20 06:55:22;;;;;;;18.13;12.77;;;16.90;99.90;;;;;;5070206;28;20179;-70
2021/07/20 06:57:51;;;;;;;20.67;14.30;;;17.00;99.90;;;;;;5065113;28;20225;-71
2021/07/20 07:00:18;;;;;;;18.50;11.70;;;17.10;99.90;;;;;;5063748;28;20447;-70
2021/07/20 07:02:48;;;;;;;19.50;12.87;;;17.20;99.90;;;;;;5064075;28;20523;-71
2021/07/20 07:05:17;;;;;;;22.73;12.57;;;17.40;99.90;;;;;;5063254;28;20466;-70
2021/07/20 07:07:46;;;;;;;19.23;13.50;;;17.50;99.90;;;;;;5062444;28;20533;-70
2021/07/20 07:10:14;;;;;;;18.57;11.27;;;17.70;99.90;;;;;;5073670;28;21021;-70
2021/07/20 07:12:40;;;;;;;20.50;12.83;;;17.80;99.90;;;;;;5067094;28;20441;-71
2021/07/20 07:15:07;;;;;;;19.33;12.43;;;18.00;99.90;;;;;;5073247;28;20442;-70
2021/07/20 07:17:34;;;;;;;14.03;11.10;;;18.10;99.90;;;;;;5063437;28;20859;-71
2021/07/20 07:20:03;;;;;;;16.90;11.70;;;18.30;99.90;;;;;;5059759;28;20898;-71
2021/07/20 07:22:30;;;;;;;16.63;10.90;;;18.40;99.90;;;;;;5068787;28;20483;-71
2021/07/20 07:24:57;;;;;;;15.00;10.40;;;18.60;99.90;;;;;;5072444;28;20492;-71
2021/07/20 07:27:23;;;;;;;21.47;11.57;;;18.70;99.90;;;;;;5066337;28;20430;-71
2021/07/20 07:29:52;;;;;;;14.83;9.17;;;18.90;99.90;;;;;;5068656;28;20433;-71
2021/07/20 07:32:19;;;;;;;16.53;11.03;;;19.00;99.90;;;;;;5064579;28;20438;-71
2021/07/20 07:34:45;;;;;;;15.50;11.07;;;19.20;99.90;;;;;;5057330;28;20425;-71
2021/07/20 07:37:13;;;;;;;18.57;10.57;;;19.60;99.90;;;;;;5066839;28;20940;-71
2021/07/20 07:39:39;;;;;;;13.50;9.30;;;20.10;99.90;;;;;;5056502;28;20578;-71
2021/07/20 07:42:06;;;;;;;15.23;9.53;;;20.50;99.90;;;;;;5070826;28;20449;-71
2021/07/20 07:44:32;;;;;;;11.93;9.20;;;20.60;99.90;;;;;;5075679;28;20879;-71
2021/07/20 07:46:59;;;;;;;11.53;9.00;;;20.60;99.90;;;;;;5075380;28;20874;-71
2021/07/20 07:49:26;;;;;;;15.83;9.03;;;20.70;99.90;;;;;;5059716;28;20436;-71
2021/07/20 07:51:52;;;;;;;12.77;10.13;;;20.70;99.90;;;;;;5072403;28;20443;-71
2021/07/20 07:54:18;;;;;;;13.80;9.67;;;20.70;99.90;;;;;;5070387;28;20425;-71
2021/07/20 07:56:45;;;;;;;12.10;10.10;;;20.60;99.90;;;;;;5073225;28;20433;-71
2021/07/20 07:59:12;;;;;;;14.17;9.20;;;20.60;99.90;;;;;;5070123;28;20509;-71
2021/07/20 08:01:42;;;;;;;23.47;9.00;;;20.40;99.90;;;;;;5070486;28;20590;-71
2021/07/20 08:04:08;;;;;;;12.30;8.00;;;20.30;99.90;;;;;;5068799;28;20520;-71
2021/07/20 08:06:34;;;;;;;12.77;9.13;;;20.20;99.90;;;;;;5072099;28;20502;-71
2021/07/20 08:09:01;;;;;;;12.10;8.67;;;20.20;99.90;;;;;;5074874;28;20735;-71
2021/07/20 08:11:29;;;;;;;10.47;8.33;;;20.20;99.90;;;;;;5070569;28;20820;-71
2021/07/20 08:13:58;;;;;;;9.00;7.90;;;20.20;99.90;;;;;;5060834;28;20411;-71
2021/07/20 08:16:27;;;;;;;12.23;7.63;;;20.20;99.90;;;;;;5064986;28;20512;-71
2021/07/20 08:18:55;;;;;;;8.83;7.23;;;20.20;99.90;;;;;;5074392;28;20867;-71
2021/07/20 08:21:20;;;;;;;10.10;7.90;;;20.20;99.90;;;;;;5060268;28;20523;-71
2021/07/20 08:23:46;;;;;;;12.03;7.67;;;20.30;99.90;;;;;;5073693;28;20872;-71
2021/07/20 08:26:24;;;;;;;10.60;7.90;;;20.30;99.90;;;;;;5073189;28;20160;-71
2021/07/20 08:29:10;;;;;;;8.70;7.30;;;20.30;99.90;;;;;;5060961;28;20862;-71
2021/07/20 08:31:39;;;;;;;9.33;6.30;;;20.30;99.90;;;;;;5060203;28;20419;-71
2021/07/20 08:34:06;;;;;;;8.53;6.90;;;21.10;99.90;;;;;;5061569;28;20466;-71
2021/07/20 08:36:38;;;;;;;11.87;7.27;;;22.30;99.90;;;;;;5072113;28;20496;-71
2021/07/20 08:39:05;;;;;;;10.90;6.43;;;23.10;99.90;;;;;;5071056;28;20498;-71
2021/07/20 08:41:59;;;;;;;8.27;6.93;;;23.90;99.80;;;;;;5062493;28;20489;-71
2021/07/20 08:47:13;;;;;;;10.13;6.00;;;24.40;97.10;;;;;;5057280;28;20569;-71
2021/07/20 08:50:05;;;;;;;9.73;6.37;;;27.30;88.10;;;;;;5064673;28;20559;-71
2021/07/20 08:52:45;;;;;;;8.13;5.93;;;28.70;74.60;;;;;;5053464;28;20439;-71
2021/07/20 08:55:20;;;;;;;7.33;5.73;;;29.50;69.10;;;;;;5056688;28;20441;-71
2021/07/20 08:57:54;;;;;;;8.00;6.47;;;30.10;64.90;;;;;;5050590;28;20468;-72
2021/07/20 09:00:23;;;;;;;9.63;6.00;;;30.80;62.10;;;;;;5038285;28;20447;-72
2021/07/20 09:03:15;;;;;;;8.80;6.30;;;30.60;58.60;;;;;;5032805;28;20501;-72
2021/07/20 09:08:33;;;;;;;9.20;5.10;;;29.90;61.00;;;;;;5059419;28;21137;-72
2021/07/20 09:13:42;;;;;;;7.97;6.07;;;27.80;63.80;;;;;;5059686;28;21097;-72
2021/07/20 09:16:13;;;;;;;10.37;6.27;;;26.10;69.20;;;;;;5043613;28;20465;-71
2021/07/20 09:18:45;;;;;;;9.90;6.33;;;25.40;71.10;;;;;;5043694;28;20477;-72
2021/07/20 09:21:17;;;;;;;9.10;5.93;;;24.90;74.00;;;;;;5041444;28;20418;-72
2021/07/20 09:24:08;;;;;;;8.93;6.53;;;24.60;75.10;;;;;;5044046;28;20931;-71
2021/07/20 09:26:41;;;;;;;9.27;6.97;;;24.70;77.80;;;;;;5055081;28;20446;-72
2021/07/20 09:29:13;;;;;;;12.37;6.50;;;25.00;76.30;;;;;;5039871;28;20515;-71
2021/07/20 09:37:06;;;;;;;11.50;6.17;;;25.40;77.70;;;;;;5059000;28;20644;-71
2021/07/20 09:45:24;;;;;;;9.30;6.30;;;25.40;77.90;;;;;;5073825;28;20548;-71
2021/07/20 09:50:47;;;;;;;8.37;6.60;;;25.30;78.00;;;;;;5103484;27;20537;-71
2021/07/20 10:02:00;;;;;;;8.00;6.37;;;24.10;78.40;;;;;;5065749;28;20653;-72
2021/07/20 10:04:40;;;;;;;10.90;6.37;;;24.00;80.50;;;;;;5043275;28;20457;-71
2021/07/20 10:09:52;;;;;;;6.37;4.97;;;24.20;81.80;;;;;;5045808;28;20907;-72
2021/07/20 10:12:27;;;;;;;10.00;6.00;;;25.00;79.60;;;;;;5037669;28;20466;-71
2021/07/20 10:15:10;;;;;;;6.57;5.43;;;25.10;76.60;;;;;;5042010;28;20889;-71
2021/07/20 10:17:57;;;;;;;10.43;6.73;;;25.20;76.30;;;;;;5038291;28;20420;-71
2021/07/20 10:20:28;;;;;;;7.00;4.77;;;25.30;77.40;;;;;;5033071;28;20561;-71
2021/07/20 10:23:19;;;;;;;9.00;5.57;;;25.50;76.40;;;;;;5043711;28;20450;-72
2021/07/20 10:25:51;;;;;;;7.80;6.00;;;25.60;74.30;;;;;;5035655;28;20912;-72
2021/07/20 10:31:03;;;;;;;6.77;5.70;;;25.70;74.40;;;;;;5089103;27;20514;-72
2021/07/20 10:33:35;;;;;;;6.90;4.80;;;25.70;73.50;;;;;;5070539;28;20731;-71
2021/07/20 10:38:45;;;;;;;7.20;5.03;;;25.40;71.40;;;;;;5061733;28;20525;-71
2021/07/20 10:41:16;;;;;;;10.20;6.20;;;25.10;71.30;;;;;;5052154;28;20792;-71
2021/07/20 10:43:49;;;;;;;10.33;5.73;;;25.00;72.70;;;;;;5048770;28;20760;-71
2021/07/20 10:46:20;;;;;;;7.17;5.10;;;24.80;73.40;;;;;;5049211;28;20425;-71
2021/07/20 10:48:52;;;;;;;6.40;5.33;;;24.70;74.50;;;;;;5049356;28;20887;-70
2021/07/20 10:51:25;;;;;;;7.20;6.03;;;24.50;74.20;;;;;;5049608;28;20402;-70
2021/07/20 10:53:59;;;;;;;8.13;6.77;;;24.30;73.60;;;;;;5049196;28;20459;-71
2021/07/20 10:56:53;;;;;;;6.13;5.53;;;24.10;75.60;;;;;;5049004;28;20442;-71
2021/07/20 11:07:29;;;;;;;8.13;6.57;;;23.60;74.70;;;;;;5110986;27;20501;-72
2021/07/20 11:10:00;;;;;;;7.20;6.50;;;23.30;76.20;;;;;;5110431;28;20392;-72
2021/07/20 11:12:30;;;;;;;6.40;5.07;;;23.30;78.60;;;;;;5106355;28;20509;-72
2021/07/20 11:14:57;;;;;;;9.23;5.17;;;23.20;77.00;;;;;;5098823;28;20418;-72
2021/07/20 11:17:24;;;;;;;6.83;5.60;;;23.10;77.90;;;;;;5118239;28;20407;-72
2021/07/20 11:19:53;;;;;;;6.60;5.30;;;23.10;78.40;;;;;;5089159;28;20427;-72
2021/07/20 11:22:19;;;;;;;7.70;5.50;;;23.00;79.10;;;;;;5086543;28;20427;-72
2021/07/20 11:24:46;;;;;;;5.80;5.10;;;22.90;79.30;;;;;;5089839;28;20841;-72
2021/07/20 11:27:16;;;;;;;7.13;6.40;;;22.70;79.20;;;;;;5088030;28;20201;-72
2021/07/20 11:29:42;;;;;;;9.70;6.70;;;22.60;81.00;;;;;;5102925;28;20431;-72
2021/07/20 11:32:14;;;;;;;6.40;4.50;;;22.60;81.60;;;;;;5100826;28;20807;-72
2021/07/20 11:34:44;;;;;;;9.40;5.60;;;22.60;81.70;;;;;;5100679;28;20983;-71
2021/07/20 11:37:15;;;;;;;7.00;5.90;;;22.40;81.90;;;;;;5106898;28;20419;-72
2021/07/20 11:39:46;;;;;;;9.83;6.17;;;22.20;81.30;;;;;;5102877;28;20495;-72
2021/07/20 11:42:35;;;;;;;7.40;5.47;;;22.10;82.40;;;;;;5108972;28;20945;-72
2021/07/20 11:45:08;;;;;;;8.80;5.30;;;21.90;85.00;;;;;;5107858;28;20451;-72
2021/07/20 11:47:43;;;;;;;9.23;6.10;;;21.80;84.90;;;;;;5106252;28;20978;-72
2021/07/20 12:01:42;;;;;;;8.33;6.63;;;21.50;86.30;;;;;;5065197;28;20516;-72
2021/07/20 12:15:18;;;;;;;10.60;6.83;;;21.60;85.10;;;;;;5085819;28;20594;-71
2021/07/20 12:17:44;;;;;;;7.93;6.63;;;21.60;84.60;;;;;;5096687;28;20980;-71
2021/07/20 12:20:13;;;;;;;8.17;6.60;;;21.70;86.00;;;;;;5086751;28;20401;-71
2021/07/20 12:22:39;;;;;;;8.03;5.40;;;21.80;83.60;;;;;;5099933;28;20412;-71
2021/07/20 12:25:07;;;;;;;10.37;6.97;;;21.90;83.80;;;;;;5080842;28;20957;-71
2021/07/20 12:27:36;;;;;;;8.40;5.80;;;21.80;83.50;;;;;;5090505;28;20457;-71
2021/07/20 12:30:04;;;;;;;6.60;5.20;;;21.80;84.90;;;;;;5089229;28;20821;-71
2021/07/20 12:32:30;;;;;;;7.83;6.00;;;21.70;82.40;;;;;;5108965;28;20514;-71
2021/07/20 12:34:58;;;;;;;5.23;4.63;;;21.70;85.60;;;;;;5076766;28;20453;-71
2021/07/20 12:37:24;;;;;;;6.60;5.73;;;21.70;83.60;;;;;;5095481;28;21000;-71
2021/07/20 12:39:50;;;;;;;7.20;5.90;;;21.70;84.70;;;;;;5090082;28;20504;-71
2021/07/20 12:42:17;;;;;;;5.97;5.37;;;21.60;85.40;;;;;;5082208;28;20175;-71
2021/07/20 12:44:42;;;;;;;6.37;5.47;;;21.60;86.40;;;;;;5077418;28;20421;-71
2021/07/20 12:47:11;;;;;;;6.10;5.50;;;21.50;84.20;;;;;;5069152;28;20999;-71
2021/07/20 12:49:38;;;;;;;8.97;5.80;;;21.50;84.10;;;;;;5069419;28;20613;-71
2021/07/20 12:52:05;;;;;;;9.00;6.60;;;21.50;86.00;;;;;;5069190;28;20922;-71
2021/07/20 12:54:43;;;;;;;6.70;5.87;;;21.50;87.00;;;;;;5080735;28;20882;-71
2021/07/20 12:57:10;;;;;;;8.00;6.40;;;21.50;87.90;;;;;;5081521;28;20460;-71
2021/07/20 12:59:39;;;;;;;6.40;5.40;;;21.60;85.70;;;;;;5068078;28;20483;-71
2021/07/20 13:02:07;;;;;;;9.27;7.60;;;21.60;85.50;;;;;;5055920;28;20430;-71
2021/07/20 13:04:34;;;;;;;7.60;5.60;;;21.50;84.40;;;;;;5068328;28;20492;-71
2021/07/20 13:07:00;;;;;;;7.17;5.93;;;21.50;87.80;;;;;;5063375;28;20418;-71
2021/07/20 13:09:27;;;;;;;8.67;6.40;;;21.50;88.10;;;;;;5068110;28;20390;-71
2021/07/20 13:11:54;;;;;;;8.90;6.53;;;21.50;88.00;;;;;;5063410;28;20481;-71
2021/07/20 13:14:21;;;;;;;10.03;6.87;;;21.50;87.30;;;;;;5068237;28;20494;-71
2021/07/20 13:16:47;;;;;;;8.40;6.20;;;21.50;85.60;;;;;;5070426;28;21012;-71
2021/07/20 13:19:15;;;;;;;7.73;6.80;;;21.40;86.20;;;;;;5068150;28;20418;-71
2021/07/20 13:21:43;;;;;;;7.50;6.10;;;21.30;86.20;;;;;;5064474;28;20434;-71
2021/07/20 13:24:09;;;;;;;10.27;7.00;;;21.20;86.70;;;;;;5048547;28;20476;-71
2021/07/20 13:26:35;;;;;;;10.97;6.43;;;21.10;88.10;;;;;;5035406;28;20396;-71
2021/07/20 13:29:04;;;;;;;8.10;6.27;;;21.10;87.20;;;;;;5017703;28;20404;-71
2021/07/20 13:31:36;;;;;;;8.60;6.20;;;21.10;86.90;;;;;;5037805;28;20419;-71
2021/07/20 13:34:02;;;;;;;9.33;5.80;;;21.00;87.20;;;;;;5041942;28;20455;-71
2021/07/20 13:36:31;;;;;;;7.53;5.47;;;21.00;87.20;;;;;;5035654;28;20508;-71
2021/07/20 13:38:59;;;;;;;11.47;6.73;;;20.90;87.30;;;;;;5035136;28;20396;-71
2021/07/20 13:41:25;;;;;;;7.50;6.27;;;20.90;87.80;;;;;;5035836;28;20505;-71
2021/07/20 13:43:53;;;;;;;8.10;6.80;;;20.90;88.70;;;;;;5034693;28;20414;-71
2021/07/20 13:46:21;;;;;;;8.23;6.60;;;20.90;90.00;;;;;;5043851;28;20484;-71
2021/07/20 13:48:49;;;;;;;11.60;8.87;;;21.00;89.10;;;;;;5054819;28;20453;-71
2021/07/20 13:51:19;;;;;;;9.93;6.80;;;21.00;86.30;;;;;;5048525;28;20446;-71
2021/07/20 13:53:52;;;;;;;8.20;6.53;;;21.00;87.40;;;;;;5035538;28;20462;-71
2021/07/20 13:56:28;;;;;;;7.87;6.57;;;21.00;87.70;;;;;;5054639;28;20453;-71
2021/07/20 13:58:58;;;;;;;7.77;6.20;;;20.90;85.90;;;;;;5054678;28;20450;-71
2021/07/20 14:01:24;;;;;;;9.40;6.50;;;20.80;86.20;;;;;;5051387;28;20433;-71